createdAt,value
2018-07-20T00:00:50.582Z,18.81
2018-07-20T00:03:19.169Z,18.64
2018-07-20T00:05:48.558Z,18.40
2018-07-20T00:08:17.150Z,18.27
2018-07-20T00:10:45.686Z,18.12
2018-07-20T00:13:15.453Z,18.22
2018-07-20T00:15:43.986Z,18.13
2018-07-20T00:18:12.543Z,18.12
2018-07-20T00:20:41.655Z,18.24
2018-07-20T00:23:10.462Z,18.33
2018-07-20T00:25:38.965Z,18.40
2018-07-20T00:28:07.619Z,18.46
2018-07-20T00:30:36.179Z,18.35
2018-07-20T00:33:04.793Z,18.24
2018-07-20T00:35:33.305Z,18.17
2018-07-20T00:38:02.159Z,17.93
2018-07-20T00:40:30.675Z,17.82
2018-07-20T00:42:59.285Z,17.72
2018-07-20T00:45:27.862Z,17.60
2018-07-20T00:47:56.494Z,17.48
2018-07-20T00:50:25.055Z,17.40
2018-07-20T00:52:54.742Z,17.51
2018-07-20T00:55:23.284Z,17.50
2018-07-20T00:57:52.760Z,17.70
2018-07-20T01:00:21.550Z,17.54
2018-07-20T01:02:50.103Z,17.51
2018-07-20T01:05:19.400Z,17.25
2018-07-20T01:07:47.998Z,17.24
2018-07-20T01:10:16.522Z,17.39
2018-07-20T01:12:45.105Z,17.46
2018-07-20T01:15:13.659Z,17.21
2018-07-20T01:17:43.820Z,16.96
2018-07-20T01:20:12.938Z,16.68
2018-07-20T01:22:41.485Z,16.51
2018-07-20T01:25:10.035Z,16.48
2018-07-20T01:27:38.559Z,16.42
2018-07-20T01:30:07.401Z,16.49
2018-07-20T01:32:35.978Z,16.58
2018-07-20T01:35:04.536Z,16.47
2018-07-20T01:37:33.080Z,16.40
2018-07-20T01:40:01.687Z,16.46
2018-07-20T01:42:30.206Z,16.41
2018-07-20T01:44:58.759Z,16.40
2018-07-20T01:47:27.265Z,16.47
2018-07-20T01:49:55.828Z,16.64
2018-07-20T01:52:25.397Z,16.57
2018-07-20T01:54:53.945Z,16.44
2018-07-20T01:57:22.504Z,16.16
2018-07-20T01:59:51.379Z,16.18
2018-07-20T02:02:19.876Z,16.14
2018-07-20T02:04:48.468Z,15.89
2018-07-20T02:07:17.041Z,15.82
2018-07-20T02:09:45.574Z,15.84
2018-07-20T02:12:14.129Z,15.90
2018-07-20T02:14:43.054Z,15.93
2018-07-20T02:17:11.554Z,15.98
2018-07-20T02:19:40.094Z,15.73
2018-07-20T02:22:08.626Z,15.71
2018-07-20T02:24:38.394Z,15.88
2018-07-20T02:27:06.957Z,15.97
2018-07-20T02:29:35.623Z,16.13
2018-07-20T02:32:04.078Z,16.14
2018-07-20T02:34:32.634Z,15.98
2018-07-20T02:37:06.538Z,15.90
2018-07-20T02:39:35.109Z,16.06
2018-07-20T02:42:03.646Z,16.24
2018-07-20T02:44:32.194Z,16.33
2018-07-20T02:47:00.726Z,16.41
2018-07-20T02:49:29.718Z,16.35
2018-07-20T02:51:58.676Z,16.39
2018-07-20T02:54:27.266Z,16.42
2018-07-20T02:56:55.749Z,16.43
2018-07-20T02:59:24.309Z,16.49
2018-07-20T03:02:00.478Z,16.51
2018-07-20T03:04:29.183Z,16.45
2018-07-20T03:06:57.706Z,16.41
2018-07-20T03:09:26.270Z,16.40
2018-07-20T03:11:54.792Z,16.37
2018-07-20T03:14:23.918Z,16.36
2018-07-20T03:16:52.495Z,16.29
2018-07-20T03:19:21.054Z,16.45
2018-07-20T03:21:49.594Z,16.45
2018-07-20T03:24:18.410Z,16.50
2018-07-20T03:28:11.306Z,16.37
2018-07-20T03:30:39.866Z,16.35
2018-07-20T03:33:08.411Z,16.43
2018-07-20T03:35:37.264Z,16.38
2018-07-20T03:38:05.769Z,16.42
2018-07-20T03:40:34.358Z,16.38
2018-07-20T03:43:02.922Z,16.48
2018-07-20T03:45:31.466Z,16.51
2018-07-20T03:48:03.706Z,16.33
2018-07-20T03:50:32.356Z,16.31
2018-07-20T03:53:00.849Z,16.21
2018-07-20T03:55:29.369Z,16.17
2018-07-20T03:57:57.926Z,16.13
2018-07-20T04:00:28.090Z,16.14
2018-07-20T04:02:56.605Z,16.25
2018-07-20T04:05:25.159Z,16.37
2018-07-20T04:07:53.654Z,16.40
2018-07-20T04:10:22.359Z,16.46
2018-07-20T04:12:52.035Z,16.47
2018-07-20T04:15:20.573Z,16.57
2018-07-20T04:17:49.063Z,16.62
2018-07-20T04:20:17.578Z,16.62
2018-07-20T04:22:46.105Z,16.82
2018-07-20T04:25:18.295Z,16.88
2018-07-20T04:27:46.789Z,16.96
2018-07-20T04:30:15.622Z,17.09
2018-07-20T04:32:44.190Z,16.95
2018-07-20T04:35:15.563Z,16.93
2018-07-20T04:37:44.060Z,16.91
2018-07-20T04:40:12.594Z,16.79
2018-07-20T04:42:41.091Z,17.00
2018-07-20T04:45:09.633Z,17.30
2018-07-20T04:47:38.118Z,17.34
2018-07-20T04:50:06.926Z,17.37
2018-07-20T04:52:35.441Z,17.43
2018-07-20T04:55:04.017Z,17.46
2018-07-20T04:57:33.557Z,17.59
2018-07-20T05:00:02.043Z,17.73
2018-07-20T05:02:30.582Z,17.92
2018-07-20T05:04:59.085Z,17.81
2018-07-20T05:07:27.589Z,17.95
2018-07-20T05:09:59.983Z,17.96
2018-07-20T05:12:32.106Z,18.15
2018-07-20T05:15:03.461Z,18.32
2018-07-20T05:17:32.015Z,18.42
2018-07-20T05:20:00.857Z,18.55
2018-07-20T05:22:29.387Z,18.51
2018-07-20T05:24:57.957Z,18.71
2018-07-20T05:27:26.473Z,18.78
2018-07-20T05:29:54.981Z,18.91
2018-07-20T05:32:29.531Z,18.88
2018-07-20T05:34:58.015Z,19.05
2018-07-20T05:37:26.679Z,19.23
2018-07-20T05:39:55.209Z,19.42
2018-07-20T05:42:23.797Z,19.41
2018-07-20T05:44:53.441Z,19.85
2018-07-20T05:47:21.963Z,20.10
2018-07-20T05:49:50.465Z,20.33
2018-07-20T05:52:19.025Z,20.53
2018-07-20T05:54:47.566Z,20.67
2018-07-20T05:57:16.510Z,20.77
2018-07-20T05:59:45.198Z,20.97
2018-07-20T06:02:13.826Z,21.07
2018-07-20T06:04:42.398Z,21.14
2018-07-20T06:07:23.210Z,21.12
2018-07-20T06:09:51.694Z,21.07
2018-07-20T06:12:20.258Z,21.00
2018-07-20T06:14:48.787Z,21.03
2018-07-20T06:17:17.343Z,21.27
2018-07-20T06:19:47.046Z,21.35
2018-07-20T06:22:15.599Z,21.68
2018-07-20T06:24:44.127Z,21.47
2018-07-20T06:27:12.736Z,21.16
2018-07-20T06:29:43.449Z,21.25
2018-07-20T06:32:22.503Z,21.17
2018-07-20T06:34:51.054Z,20.99
2018-07-20T06:37:19.586Z,21.16
2018-07-20T06:39:48.117Z,21.22
2018-07-20T06:42:16.729Z,21.54
2018-07-20T06:44:46.538Z,21.50
2018-07-20T06:47:16.101Z,21.78
2018-07-20T06:49:44.657Z,21.59
2018-07-20T06:52:14.020Z,21.47
2018-07-20T06:54:45.897Z,21.73
2018-07-20T06:57:14.495Z,21.69
2018-07-20T06:59:43.045Z,21.69
2018-07-20T07:02:13.218Z,22.20
2018-07-20T07:04:42.883Z,22.58
2018-07-20T07:07:11.758Z,22.75
2018-07-20T07:09:40.599Z,22.82
2018-07-20T07:12:09.349Z,23.08
2018-07-20T07:14:37.822Z,22.70
2018-07-20T07:17:06.342Z,22.88
2018-07-20T07:19:34.860Z,23.12
2018-07-20T07:22:03.436Z,23.02
2018-07-20T07:24:32.949Z,23.17
2018-07-20T07:27:01.490Z,23.45
2018-07-20T07:29:33.940Z,23.99
2018-07-20T07:32:02.483Z,24.53
2018-07-20T07:34:31.030Z,24.97
2018-07-20T07:36:59.495Z,25.02
2018-07-20T07:39:28.092Z,24.82
2018-07-20T07:41:56.612Z,25.51
2018-07-20T07:44:25.200Z,25.67
2018-07-20T07:46:53.726Z,25.63
2018-07-20T07:49:22.321Z,25.56
2018-07-20T07:51:52.086Z,25.79
2018-07-20T07:54:20.690Z,26.69
2018-07-20T07:56:49.379Z,27.90
2018-07-20T07:59:17.896Z,28.82
2018-07-20T08:01:46.406Z,30.00
2018-07-20T08:04:20.806Z,29.75
2018-07-20T08:06:49.298Z,29.41
2018-07-20T08:09:17.814Z,30.97
2018-07-20T08:11:46.375Z,32.01
2018-07-20T08:14:14.909Z,32.64
2018-07-20T08:16:44.277Z,34.71
2018-07-20T08:19:12.811Z,33.71
2018-07-20T08:21:41.375Z,34.76
2018-07-20T08:24:09.926Z,35.01
2018-07-20T08:26:38.414Z,33.70
2018-07-20T08:29:10.792Z,33.59
2018-07-20T08:31:39.306Z,33.64
2018-07-20T08:34:08.477Z,32.04
2018-07-20T08:36:37.008Z,31.53
2018-07-20T08:39:18.686Z,32.16
2018-07-20T08:41:47.170Z,31.76
2018-07-20T08:44:15.714Z,32.83
2018-07-20T08:46:44.196Z,33.55
2018-07-20T08:49:14.301Z,33.17
2018-07-20T08:51:42.761Z,33.86
2018-07-20T08:54:11.344Z,32.99
2018-07-20T08:56:39.746Z,32.83
2018-07-20T08:59:08.326Z,32.26
2018-07-20T09:01:51.507Z,32.74
2018-07-20T09:04:19.994Z,34.29
2018-07-20T09:06:48.460Z,33.43
2018-07-20T09:09:16.956Z,33.43
2018-07-20T09:11:45.447Z,35.59
2018-07-20T09:14:19.755Z,36.74
2018-07-20T09:16:48.230Z,35.56
2018-07-20T09:19:16.939Z,33.93
2018-07-20T09:21:45.450Z,33.84
2018-07-20T09:24:13.971Z,35.20
2018-07-20T09:26:42.875Z,34.68
2018-07-20T09:29:11.400Z,33.78
2018-07-20T09:31:39.885Z,33.80
2018-07-20T09:34:08.391Z,35.15
2018-07-20T09:36:36.904Z,34.86
2018-07-20T09:39:08.354Z,34.94
2018-07-20T09:41:36.850Z,34.60
2018-07-20T09:44:05.362Z,34.04
2018-07-20T09:46:33.932Z,34.93
2018-07-20T09:49:08.467Z,35.67
2018-07-20T09:51:36.976Z,37.56
2018-07-20T09:54:05.567Z,35.02
2018-07-20T09:56:34.076Z,34.76
2018-07-20T09:59:03.046Z,34.90
2018-07-20T10:01:32.566Z,35.22
2018-07-20T10:04:01.113Z,33.93
2018-07-20T10:06:29.954Z,33.08
2018-07-20T10:08:58.476Z,33.01
2018-07-20T10:11:27.070Z,33.71
2018-07-20T10:14:03.440Z,34.24
2018-07-20T10:16:31.925Z,35.63
2018-07-20T10:19:00.574Z,35.63
2018-07-20T10:21:30.262Z,35.13
2018-07-20T10:23:58.842Z,35.60
2018-07-20T10:26:27.428Z,37.27
2018-07-20T10:28:55.955Z,36.57
2018-07-20T10:31:24.472Z,35.97
2018-07-20T10:33:52.949Z,35.82
2018-07-20T10:36:22.526Z,37.21
2018-07-20T10:38:51.086Z,38.63
2018-07-20T10:41:19.605Z,39.60
2018-07-20T10:43:48.114Z,41.51
2018-07-20T10:46:16.659Z,40.05
2018-07-20T10:48:51.351Z,39.94
2018-07-20T10:51:19.864Z,39.74
2018-07-20T10:53:48.357Z,39.95
2018-07-20T10:56:16.903Z,39.19
2018-07-20T10:58:45.406Z,37.96
2018-07-20T11:01:13.951Z,37.51
2018-07-20T11:03:43.367Z,36.94
2018-07-20T11:06:11.874Z,36.05
2018-07-20T11:08:40.394Z,35.66
2018-07-20T11:11:09.170Z,34.31
2018-07-20T11:13:37.681Z,34.19
2018-07-20T11:16:06.334Z,33.99
2018-07-20T11:18:34.899Z,33.00
2018-07-20T11:21:03.605Z,32.29
2018-07-20T11:23:32.091Z,32.23
2018-07-20T11:26:00.633Z,31.73
2018-07-20T11:28:29.102Z,31.19
2018-07-20T11:30:57.598Z,31.46
2018-07-20T11:33:26.108Z,31.48
2018-07-20T11:35:54.598Z,31.85
2018-07-20T11:38:23.124Z,31.83
2018-07-20T11:40:51.677Z,31.87
2018-07-20T11:43:20.186Z,32.05
2018-07-20T11:45:49.205Z,32.21
2018-07-20T11:48:17.706Z,32.45
2018-07-20T11:50:46.428Z,32.98
2018-07-20T11:53:18.247Z,33.55
2018-07-20T11:55:49.081Z,33.57
2018-07-20T11:58:17.567Z,32.63
2018-07-20T12:00:46.094Z,32.53
2018-07-20T12:03:14.571Z,33.24
2018-07-20T12:05:43.090Z,35.05
2018-07-20T12:08:11.575Z,36.58
2018-07-20T12:10:40.078Z,37.50
2018-07-20T12:13:08.598Z,37.63
2018-07-20T12:15:38.392Z,38.92
2018-07-20T12:18:07.301Z,38.57
2018-07-20T12:20:36.193Z,38.30
2018-07-20T12:23:04.715Z,39.27
2018-07-20T12:25:33.269Z,40.77
2018-07-20T12:28:01.771Z,41.17
2018-07-20T12:30:30.293Z,41.18
2018-07-20T12:32:58.770Z,41.40
2018-07-20T12:35:27.261Z,42.35
2018-07-20T12:37:55.756Z,42.98
2018-07-20T12:40:24.482Z,42.15
2018-07-20T12:42:53.011Z,42.86
2018-07-20T12:45:23.249Z,42.01
2018-07-20T12:47:51.824Z,41.97
2018-07-20T12:50:26.725Z,41.79
2018-07-20T12:52:56.329Z,41.00
2018-07-20T12:55:24.827Z,40.17
2018-07-20T12:57:53.366Z,38.83
2018-07-20T13:00:26.344Z,39.68
2018-07-20T13:02:55.675Z,39.79
2018-07-20T13:05:24.214Z,40.00
2018-07-20T13:07:52.806Z,39.71
2018-07-20T13:10:24.726Z,39.73
2018-07-20T13:12:53.234Z,40.78
2018-07-20T13:15:21.781Z,41.30
2018-07-20T13:17:50.618Z,41.57
2018-07-20T13:20:20.249Z,41.23
2018-07-20T13:22:51.108Z,41.11
2018-07-20T13:25:20.462Z,41.59
2018-07-20T13:27:50.222Z,39.74
2018-07-20T13:30:20.099Z,38.83
2018-07-20T13:32:48.686Z,38.47
2018-07-20T13:35:17.203Z,37.47
2018-07-20T13:37:45.801Z,37.96
2018-07-20T13:40:15.186Z,38.67
2018-07-20T13:42:43.735Z,39.54
2018-07-20T13:45:12.251Z,38.92
2018-07-20T13:47:41.137Z,39.23
2018-07-20T13:50:09.821Z,38.68
2018-07-20T13:52:38.451Z,38.19
2018-07-20T13:55:07.810Z,38.45
2018-07-20T13:57:36.438Z,38.37
2018-07-20T14:00:06.433Z,39.80
2018-07-20T14:02:35.081Z,40.61
2018-07-20T14:05:04.897Z,40.88
2018-07-20T14:07:33.468Z,40.23
2018-07-20T14:10:01.990Z,39.48
2018-07-20T14:12:30.986Z,38.90
2018-07-20T14:14:59.733Z,39.41
2018-07-20T14:17:28.296Z,38.47
2018-07-20T14:19:56.821Z,38.83
2018-07-20T14:22:27.025Z,38.47
2018-07-20T14:24:55.557Z,38.33
2018-07-20T14:27:24.270Z,37.69
2018-07-20T14:29:56.335Z,37.92
2018-07-20T14:32:25.110Z,37.91
2018-07-20T14:34:53.731Z,37.70
2018-07-20T14:37:24.463Z,38.36
2018-07-20T14:39:53.100Z,38.34
2018-07-20T14:42:22.664Z,37.58
2018-07-20T14:44:51.571Z,37.93
2018-07-20T14:47:20.511Z,38.20
2018-07-20T14:49:49.206Z,39.02
2018-07-20T14:52:18.760Z,38.46
2018-07-20T14:54:48.088Z,38.70
2018-07-20T14:57:16.657Z,38.79
2018-07-20T14:59:45.168Z,38.71
2018-07-20T15:02:13.701Z,38.63
2018-07-20T15:04:42.847Z,37.97
2018-07-20T15:07:11.409Z,37.27
2018-07-20T15:09:40.882Z,37.58
2018-07-20T15:12:10.374Z,37.37
2018-07-20T15:14:39.375Z,37.93
2018-07-20T15:17:07.890Z,38.26
2018-07-20T15:19:37.254Z,38.38
2018-07-20T15:22:05.842Z,38.61
2018-07-20T15:24:34.480Z,38.43
2018-07-20T15:27:03.027Z,38.39
2018-07-20T15:29:31.559Z,38.19
2018-07-20T15:32:01.193Z,38.26
2018-07-20T15:34:29.725Z,38.26
2018-07-20T15:36:58.197Z,37.56
2018-07-20T15:39:26.721Z,37.67
2018-07-20T15:41:55.161Z,37.31
2018-07-20T15:44:23.672Z,37.23
2018-07-20T15:46:52.336Z,37.36
2018-07-20T15:49:20.700Z,37.35
2018-07-20T15:53:35.464Z,37.70
2018-07-20T15:54:18.298Z,37.52
2018-07-20T15:56:46.728Z,37.73
2018-07-20T15:59:15.501Z,37.59
2018-07-20T16:01:43.966Z,37.26
2018-07-20T16:04:12.494Z,37.10
2018-07-20T16:06:40.977Z,37.49
2018-07-20T16:09:12.497Z,37.46
2018-07-20T16:11:41.100Z,37.59
2018-07-20T16:14:09.559Z,36.59
2018-07-20T16:16:38.130Z,36.72
2018-07-20T16:19:07.767Z,36.68
2018-07-20T16:21:36.288Z,37.22
2018-07-20T16:24:04.975Z,37.40
2018-07-20T16:26:33.746Z,37.73
2018-07-20T16:29:02.247Z,36.79
2018-07-20T16:31:30.721Z,36.84
2018-07-20T16:33:59.287Z,36.91
2018-07-20T16:36:27.775Z,36.88
2018-07-20T16:38:56.280Z,37.20
2018-07-20T16:41:24.790Z,37.26
2018-07-20T16:43:53.281Z,37.63
2018-07-20T16:46:21.725Z,37.74
2018-07-20T16:48:50.192Z,37.03
2018-07-20T16:51:18.712Z,36.77
2018-07-20T16:53:47.915Z,36.72
2018-07-20T16:56:16.478Z,36.21
2018-07-20T16:58:44.938Z,36.30
2018-07-20T17:01:13.444Z,35.74
2018-07-20T17:03:41.939Z,35.92
2018-07-20T17:06:10.438Z,35.65
2018-07-20T17:08:39.781Z,35.35
2018-07-20T17:11:08.689Z,35.30
2018-07-20T17:16:04.727Z,34.65
2018-07-20T17:18:33.226Z,34.71
2018-07-20T17:21:02.255Z,34.85
2018-07-20T17:23:30.721Z,34.89
2018-07-20T17:25:59.246Z,35.27
2018-07-20T17:28:27.739Z,35.30
2018-07-20T17:30:56.263Z,35.05
2018-07-20T17:33:24.755Z,34.77
2018-07-20T17:35:53.278Z,34.49
2018-07-20T17:38:21.754Z,33.38
2018-07-20T17:40:50.237Z,32.48
2018-07-20T17:43:18.694Z,31.78
2018-07-20T17:45:47.244Z,31.39
2018-07-20T17:48:15.730Z,30.95
2018-07-20T17:50:44.254Z,30.88
2018-07-20T17:53:12.807Z,30.78
2018-07-20T17:55:41.306Z,30.82
2018-07-20T17:58:09.802Z,30.71
2018-07-20T18:00:38.706Z,30.58
2018-07-20T18:03:07.197Z,30.73
2018-07-20T18:05:35.709Z,30.48
2018-07-20T18:08:04.679Z,30.26
2018-07-20T18:10:33.182Z,30.00
2018-07-20T18:13:01.692Z,29.93
2018-07-20T18:15:30.218Z,29.93
2018-07-20T18:17:58.915Z,29.90
2018-07-20T18:20:27.417Z,29.67
2018-07-20T18:22:55.905Z,29.54
2018-07-20T18:25:24.512Z,29.34
2018-07-20T18:27:53.011Z,29.14
2018-07-20T18:30:21.494Z,29.07
2018-07-20T18:32:50.107Z,29.08
2018-07-20T18:35:18.602Z,28.97
2018-07-20T18:37:47.131Z,28.88
2018-07-20T18:40:15.629Z,28.70
2018-07-20T18:42:44.120Z,28.61
2018-07-20T18:45:12.599Z,28.47
2018-07-20T18:47:41.109Z,28.27
2018-07-20T18:50:10.382Z,28.15
2018-07-20T18:52:38.961Z,27.88
2018-07-20T18:55:07.889Z,27.78
2018-07-20T18:57:36.386Z,27.64
2018-07-20T19:00:05.586Z,27.49
2018-07-20T19:02:34.528Z,27.33
2018-07-20T19:05:03.054Z,27.23
2018-07-20T19:07:31.591Z,27.27
2018-07-20T19:10:00.314Z,27.16
2018-07-20T19:12:28.907Z,27.01
2018-07-20T19:14:57.498Z,26.86
2018-07-20T19:17:25.997Z,26.71
2018-07-20T19:19:54.545Z,26.66
2018-07-20T19:22:23.050Z,26.58
2018-07-20T19:24:51.648Z,26.48
2018-07-20T19:27:20.201Z,26.33
2018-07-20T19:29:48.654Z,26.35
2018-07-20T19:32:17.150Z,26.24
2018-07-20T19:34:45.601Z,26.03
2018-07-20T19:37:14.110Z,25.97
2018-07-20T19:39:42.578Z,25.91
2018-07-20T19:42:11.143Z,25.98
2018-07-20T19:44:39.627Z,25.85
2018-07-20T19:47:08.745Z,25.84
2018-07-20T19:49:37.275Z,25.79
2018-07-20T19:52:06.387Z,25.77
2018-07-20T19:54:34.899Z,25.71
2018-07-20T19:57:03.394Z,25.57
2018-07-20T19:59:31.906Z,25.50
2018-07-20T20:02:00.481Z,25.55
2018-07-20T20:04:28.985Z,25.41
2018-07-20T20:06:57.489Z,25.33
2018-07-20T20:09:26.366Z,25.21
2018-07-20T20:11:54.849Z,25.22
2018-07-20T20:14:23.331Z,25.16
2018-07-20T20:16:51.821Z,25.10
2018-07-20T20:19:20.398Z,25.11
2018-07-20T20:21:48.899Z,25.04
2018-07-20T20:24:17.401Z,24.93
2018-07-20T20:26:45.978Z,24.78
2018-07-20T20:29:14.469Z,24.80
2018-07-20T20:31:42.935Z,24.64
2018-07-20T20:34:11.453Z,24.64
2018-07-20T20:36:40.303Z,24.61
2018-07-20T20:39:11.529Z,24.61
2018-07-20T20:41:40.039Z,24.47
2018-07-20T20:44:09.053Z,24.45
2018-07-20T20:46:37.937Z,24.30
2018-07-20T20:49:07.569Z,24.21
2018-07-20T20:51:36.143Z,24.13
2018-07-20T20:54:05.199Z,24.08
2018-07-20T20:56:33.733Z,24.01
2018-07-20T20:59:02.442Z,23.53
2018-07-20T21:01:30.914Z,23.31
2018-07-20T21:03:59.498Z,23.14
2018-07-20T21:06:28.478Z,23.26
2018-07-20T21:08:57.034Z,23.04
2018-07-20T21:11:25.806Z,23.04
2018-07-20T21:13:54.676Z,23.05
2018-07-20T21:16:23.354Z,23.14
2018-07-20T21:18:51.922Z,23.14
2018-07-20T21:21:20.448Z,23.15
2018-07-20T21:23:49.492Z,23.04
2018-07-20T21:26:18.013Z,23.12
2018-07-20T21:28:46.553Z,23.12
2018-07-20T21:31:15.045Z,23.24
2018-07-20T21:33:43.970Z,23.22
2018-07-20T21:36:12.463Z,23.17
2018-07-20T21:38:41.007Z,23.09
2018-07-20T21:41:09.542Z,23.13
2018-07-20T21:43:38.122Z,23.14
2018-07-20T21:46:06.667Z,23.08
2018-07-20T21:48:35.382Z,23.12
2018-07-20T21:51:03.941Z,23.17
2018-07-20T21:53:32.467Z,23.11
2018-07-20T21:56:00.987Z,23.08
2018-07-20T21:58:29.502Z,22.93
2018-07-20T22:00:58.112Z,23.06
2018-07-20T22:03:26.634Z,23.06
2018-07-20T22:05:55.289Z,23.02
2018-07-20T22:08:23.877Z,22.98
2018-07-20T22:10:53.109Z,22.93
2018-07-20T22:13:21.617Z,22.86
2018-07-20T22:15:50.531Z,22.71
2018-07-20T22:18:19.059Z,22.66
2018-07-20T22:20:48.349Z,22.58
2018-07-20T22:23:17.556Z,22.52
2018-07-20T22:25:46.121Z,22.44
2018-07-20T22:28:14.809Z,22.44
2018-07-20T22:30:43.334Z,22.44
2018-07-20T22:33:11.851Z,22.35
2018-07-20T22:35:40.643Z,22.28
2018-07-20T22:38:10.083Z,22.19
2018-07-20T22:40:38.651Z,22.16
2018-07-20T22:43:07.509Z,22.17
2018-07-20T22:45:36.111Z,22.09
2018-07-20T22:48:05.515Z,21.96
2018-07-20T22:50:36.039Z,21.94
2018-07-20T22:53:04.681Z,21.90
2018-07-20T22:55:33.448Z,21.92
2018-07-20T22:58:02.010Z,21.87
2018-07-20T23:00:30.860Z,21.73
2018-07-20T23:02:59.330Z,21.72
2018-07-20T23:05:27.862Z,21.74
2018-07-20T23:07:56.500Z,21.75
2018-07-20T23:10:25.063Z,21.59
2018-07-20T23:12:53.589Z,21.45
2018-07-20T23:15:22.129Z,21.55
2018-07-20T23:17:51.238Z,21.55
2018-07-20T23:20:19.812Z,21.48
2018-07-20T23:22:48.322Z,21.45
2018-07-20T23:25:17.664Z,21.49
2018-07-20T23:27:46.165Z,21.47
2018-07-20T23:30:14.749Z,21.43
2018-07-20T23:32:43.378Z,21.36
2018-07-20T23:35:11.971Z,21.34
2018-07-20T23:37:40.613Z,21.28
2018-07-20T23:40:09.215Z,21.28
2018-07-20T23:42:37.778Z,21.25
2018-07-20T23:45:06.867Z,21.19
2018-07-20T23:47:35.429Z,21.19
2018-07-20T23:50:04.117Z,21.25
2018-07-20T23:52:32.746Z,20.83
2018-07-20T23:55:01.889Z,19.81
2018-07-20T23:57:30.411Z,19.76
2018-07-20T23:59:59.362Z,19.89
